Kcmh metar

METAR KCMH 180051Z 32009KT 10SM FEW050 FEW250 18/12 A2984 RMK AO2 SLP

The ICAO airport code of this field is KCMH. The local airport ID (FAA LID) of this airport is CMH. The airport's IATA code is CMH. Nearby other airfields are Ohio State University Airport, Rickenbacker International Airport, Warped Wing Airport, Bolton Field and Head Field. John Glenn Columbus International Airport publishes a METAR.6 days ago · TAF Rickenbacker International Airport. Rickenbacker International Airport is a large airport in Ohio, United States. The airport is located at latitude 39.81379 and longitude -82.92782. The airport has 2 runways: 5R/23L and 5L/23R. The ICAO airport code of this field is KLCK. The local airport ID (FAA LID) of this airport is LCK. METAR KCMH 171732Z 22019G27KT 10SM BKN029 23/16 A2979 RMK AO2 PK WND 21027/1731 T02330161 $. The wind is from direction 220° with a speed of 19 kt. Visibility is 10 mi. The ceiling, broken or more, is 2,900 ft. The temperature and wind chill are 23 °C.

Did you know?

metar; kvta 8nm n : ... 040153z auto 13003kt 9sm -ra ovc032 21/19 a3002 rmk ao2 rab45 slp159 p0000 t02060189 taf; kcmh 23nm w : 031720z 0318/0418 26006kt p6sm -shra bkn070 fm032300 02004kt p6sm -shra bkn060 fm040300 vrb04kt p6sm vcsh bkn060 fm041200 11005kt p6sm bkn060 fm041400 12006kt p6sm bkn035 fm041500 13006kt p6sm bkn022 klckCalculated from historical METAR data of John Glenn Columbus International Airport (KCMH) between 2019 and 2022. Remove ads. Remove ads. VFR conditions Temperature Precipitation Wind. VFR conditions (%) Month: Average 2022 2021 2020 2019 ; January: 55.3: 62 : 49 ...CMH Tower and TRACON. Winter Storm Exiting the Northeast U.S.; Another Front to Move into the Northwest U.S.; Critical Fire Weather in the Central U.S. A winter storm will shift across the Canadian Maritimes Monday with gusty winds, hazardous seas, and heavy high elevation snow lingering over the Northeast states.METAR KCMH 172141Z 31019G27KT 1SM R28L/1200VP6000FT +TSRAGR BR BKN024CB OVC055 16/14 A2975 RMK AO2 PK WND 21035/2124 WSHFT 2120 LTG DSNT NE AND SW AND W RAB29GRB39 TSB26 FRQ LTGCCCG TS W-N MOV E P0002 T01560144 $. Current weather is heavy thunderstorms rain hail, mist.The wind is from direction 310° with a speed of 19 kt. Visibility is 1 mi. The ceiling, broken or more, is 2,400 ft. The ...METAR Chino Airport - KCNO/CNO. Chino Airport is a midsized airport in California, United States. The airport is located at latitude 33.97495 and longitude -117.63668. The airport has 3 runways: 3/21, 8L/26R and 8R/26L. The ICAO airport code of this field is KCNO.METAR University Of Illinois/Willard Airport - KCMI/CMI. University Of Illinois/Willard Airport is a midsized airport in Illinois, United States. The airport is located at latitude 40.03824 and longitude -88.27660. The airport has 3 runways: 14L/32R, 4/22 and 14R/32L.AWC - Aviation Weather CenterA METAR (Meteorological Terminal Air Report) is a routine aviation weather report of actual observed conditions at an airport. METARs report actual weather observed at an airport. METARs are encoded in a standard format that can be understood internationally. There are slight differences between North American and International METARs but the ...METAR Oxnard Airport - KOXR/OXR. Oxnard Airport is a midsized airport in California, United States. The airport is located at latitude 34.20081 and longitude -119.20723. The airport has one runway: 7/25.TAF Rickenbacker International Airport. Rickenbacker International Airport is a large airport in Ohio, United States. The airport is located at latitude 39.81379 and longitude -82.92782. The airport has 2 runways: 5R/23L and 5L/23R. The ICAO airport code of this field is KLCK. The local airport ID (FAA LID) of this airport is LCK.METAR KCMH 031951Z 15005KT 10SM FEW065 30/16 A3014 RMK AO2 SLP200 T03000156. The wind is from direction 150° with a speed of 5 kt. Visibility is 10 mi. ... KOSU - Ohio State University Airport (9.7 NM) METAR KLCK - Rickenbacker International Airport (11 NM) METAR TAF KTZR - Bolton Field (13 NM) METAR KLHQ - Fairfield County (18 NM) METAR. 3 ...The airport is located at latitude 51.14875 and longitude -0.19247. The airport has 2 runways: 8R/26L and 8L/26R. The ICAO airport code of this field is EGKK. The airport's IATA code is LGW. The airport is in the London FIR . This aviation weather observation was made for London Gatwick Airport on May 2, 2024 21:20, local time.KCMH: METAR: 2023/12/01: 17:36 UTC: NOAA: KCMH 011736Z 16006 KT 2 SM-DZ BR BKN 008 O VC 013 07/07 A2987 RMK AO2 DZ B36 P0000 T00670067 $ Station Type Date Time Source; KCMH: Decoded METAR: 2023/12/01: 17:36 UTC: NOAA: PORT COLUMBUS INTERNATIONAL AIRPORT, OH, United States (KCMH) 40-00N 82-53W 247MMETAR KCMH 030551Z 00000KT 10SM CLR 19/16 A3018 RMK AO2 SLP214 T01890156 10244 20183 57004. There is little or no wind from a variable direction. Visibility is 10 mi. ... (9.7 NM) METAR KLCK - Rickenbacker International Airport (11 NM) METAR TAF KTZR - Bolton Field (13 NM) METAR KLHQ - Fairfield County (18 NM) METAR. 3 October 01:51 LT 2d AWC - Aviation Weather Center METAR KCMH 032351Z 13005KT 10SM FEW055 26/16 A3012 RMK AO2 SLP195 T02610161 10306 20256 55001. The wind is from direction 130° with a speed of 5 kt. Visibility is 10 mi. No ceiling has been observed. The temperature and wind chill are 26 °C.METAR KCMH 170651Z 18005KT 10SM OVC140 22/12 A2988 RMK AO2 SLP111 T02220122. The wind is from direction 180° with a speed of 5 kt. Visibility is 10 mi. The ceiling, broken or more, is 14,000 ft. The temperature and wind chill are 22 °C.METAR Los Angeles International Airport - KLAX/LAX. Los Angeles International Airport is a large airport in California, United States. The airport is located at latitude 33.94312 and longitude -118.40880. The airport has 4 runways: 7L/25R, 6R/24L, 6L/24R and 7R/25L. The ICAO airport code of this field is KLAX.METAR KCMH 171451Z 18011KT 7SM SCT012 BKN022 OVC042 17/16 A2988 RMK AO2 RAB1358E31 SLP113 P0005 60012 T01720161 57013 $. The wind is from direction 180° with a speed of 11 kt. Visibility is 7 mi. The ceiling, broken or more, is 2,200 ft. The temperature and wind chill are 17 °C.METAR KCMH 180851Z 28009KT 10SM OVC034 13/08 A2999 RMK AO2 SLP152 T01330083 53013 $. The wind is from direction 280° with a speed of 9 kt. Visibility is 10 mi. The ceiling, broken or more, is 3,400 ft. The temperature and wind chill are 13 °C.METAR/Synop Information for KCMH (CMH) in PORT COLUMBUS INTERNATIONAL AIRPORT, OH, United States The following information is known about KCMH. If you think that any information is incorrect, then please follow the instructions for correcting that data item. It is possible that this page will report a problem where no problem exists.METAR KCMH 180251Z 29006KT 10SM FEW060 15/11 A2991 RMK AO2 SLP126 T01500106 51034 $. The wind is from direction 290° with a speed of 6 kt. Visibility is 10 mi. No ceiling has been observed. The temperature and wind chill are 15 °C.KCMH - John Glenn Columbus International Airport (11 NM) METAR TAF KILN - Wilmington Air Park Airport (46 NM) METAR TAF KZZV - Zanesville Municipal Airport (48 NM) METAR TAF KFFO - Wright-Patterson Air Force Base (52 NM) METAR TAF. 29 April 13:45 LT 1h . Valid from April 29, 2024 14:00 to April 30, 2024 14:00. Show past. Time ...METAR KCMH 170651Z 18005KT 10SM OVC140 22/12 A29METAR KCMH 161251Z 00000KT 10SM CLR 02/01 A3028 RMK AO2 SLP2 METAR record in weather station: Icao (OACI): KCMH Name weather station: Columbus, Port Columbus International Airport Latitude: 39.995 Longitude: -82.87639 Select a date To see the weather on a specific date, select the year, month and day of … KCMH METAR Weather: KCMH 020351Z 12003KT 10SM FEW05 METAR UTC DATE/TIME; KCMH 032351Z 10004KT 10SM FEW070 BKN090 OVC140 22/17 A2998 RMK AO2 SLP146 T02170167 10239 20217 55000: 2024-05-03 23:51:00: Day: 3rd Time: 23:51 UTC Wind direction: 100° Wind speed: 4kt Temperature: 22°C Dew point: 17°C Pressure: 29.98 inHg Visibility: 10 SM KCMH 032251Z 14005KT 10SM FEW065 OVC100 23/16 A2997 RMK AO2 SLP144 T02330156 METAR KCMH 041151Z 00000KT 7SM FEW250 16/14 A3016 RM

METAR KCMH 021451Z 00000KT 10SM CLR 23/17 A3028 RMK AO2 SLP247 T02330172 51002. There is little or no wind from a variable direction. Visibility is 10 mi. ... (9.7 NM) METAR KLCK - Rickenbacker International Airport (11 NM) METAR TAF KTZR - Bolton Field (13 NM) METAR KLHQ - Fairfield County (18 NM) METAR. 2 October 10:51 …METAR KCMH 180451Z 27004KT 10SM BKN060 14/11 A2993 RMK AO2 SLP131 T01390106 402610139 $. The wind is from direction 270° with a speed of 4 kt. Visibility is 10 mi. The ceiling, broken or more, is 6,000 ft. The temperature and wind chill are 14 °C. Don't have an account yet? Sign up for free!. English . English Nederlands Español Deutsch Français Italiano Português Polski 中文 Nederlands Español Deutsch METAR KCMH 022151Z 09004KT 10SM CLR 29/16 A3018 RMK AO2 SLP216 T02890156. The wind is from direction 090° with a speed of 4 kt. Visibility is 10 mi. ... KOSU - Ohio State University Airport (9.7 NM) METAR KLCK - Rickenbacker International Airport (11 NM) METAR TAF KTZR - Bolton Field (13 NM) METAR KLHQ - Fairfield County (18 NM) METAR. 2 ...METAR KCMH 180351Z 28005KT 10SM FEW065 14/10 A2991 RMK AO2 SLP126 T01440100 $. The wind is from direction 280° with a speed of 5 kt. Visibility is 10 mi. ... KOSU - Ohio State University Airport (9.7 NM) METAR KLCK - Rickenbacker International Airport (11 NM) METAR TAF KTZR - Bolton Field (13 NM) METAR KLHQ - …

METAR KCMH 022051Z 12003KT 10SM CLR 29/15 A3019 RMK AO2 SLP216 T02940150 56018. The wind is from direction 120° with a speed of 3 kt. Visibility is 10 mi. ... KOSU - Ohio State University Airport (9.7 NM) METAR KLCK - Rickenbacker International Airport (11 NM) METAR TAF KTZR - Bolton Field (13 NM) METAR KLHQ - Fairfield …KCMH METAR Weather: KCMH 032151Z 21016G24KT 10SM BKN044 OVC250 09/01 A2937 RMK AO2 SLP947 T00890006 KCMH Flight Activity (FlightAware) KCMH Webcam: KCMH Airport Info (iFlightPlanner) KCMH Clearance Delivery #1: Feed Status: UP Listeners: 0 (in browser, HTML5) (launches your MP3 player)…

Reader Q&A - also see RECOMMENDED ARTICLES & FAQs. KCMH: METAR: 2023/12/01: 17:36 UTC: NOAA: KCMH 011736Z 1600. Possible cause: METAR KCMH 180051Z 32009KT 10SM FEW050 FEW250 18/12 A2984 RMK AO2 SLP100 T01830.

METAR KCMH 041351Z 15003KT 10SM FEW250 21/16 A3018 RMK AO2 SLP215 T02110156. The wind is from direction 150° with a speed of 3 kt. Visibility is 10 mi. ... KOSU - Ohio State University Airport (9.7 NM) METAR KLCK - Rickenbacker International Airport (11 NM) METAR TAF KTZR - Bolton Field (13 NM) METAR KLHQ - Fairfield County (18 NM) METAR. 4 ...METAR KCMH 160851Z 16003KT 10SM BKN190 17/13 A2979 RMK AO2 SLP082 T01670128 58016. The wind is from direction 160° with a speed of 3 kt. Visibility is 10 mi. The ceiling, broken or more, is 19,000 ft. The temperature and wind chill are 17 °C. National Heliport OI96 · Ohio, United States.Definition. Meteorological Aerodrome Report (METAR), also known as Meteorological Terminal Aviation Routine Weather Report, Meteorological Terminal Air Report or Meteorological Airfield Report is a format for reporting weather information. The World Meteorological Organisation (WMO) describes METAR as the aerodrome routine meteorological report.

METAR Michael J Smith Field - KMRH . Michael J Smith Field is a midsized airport in North Carolina, United States. The airport is located at latitude 34.73362 and longitude -76.66030. The airport has 3 runways: 3/21, 8/26 and 14/32. The ICAO airport code of this field is KMRH. The local airport ID (FAA LID) of this airport is MRH. ...METAR KCMH 180651Z 28011KT 10SM BKN040 14/09 A2996 RMK AO2 SLP142 T01440094 $. The wind is from direction 280° with a speed of 11 kt. Visibility is 10 mi. The ceiling, broken or more, is 4,000 ft. The temperature and wind chill are 14 °C.

Bekijk het vliegweer (METAR and TAF) van John Glenn Columbus Inte METAR Montreal / Pierre Elliott Trudeau International Airport - CYUL/YUL. Montreal / Pierre Elliott Trudeau International Airport is a large airport in Quebec, Canada. The airport is located at latitude 45.46747 and longitude -73.74361. The airport has 3 runways: 6L/24R, 6R/24L and 10/28.AWC - Aviation Weather Center METAR KCMH 032151Z 10007KT 10SM FEW060 29/16 A3012 RMK AO2 SLP192 T02METAR is a format for reporting weather information. A METAR we METAR KCMH 090451Z 11003KT 10SM SCT090 SCT250 14/11 A3003 RMK AO2 SLP165 T01440106 402390094 : April 8, 2024: Time Code Weather Temp. Visibility Ceiling Wind 2 days ago · Columbus John Glenn International Airport, (CMH/KCMH), United States - View the latest KCMH METAR reports to find out the current weather conditions at the airport. METAR KCMH 181751Z 26004KT 10SM SCT250 21/08 A3006 RMK AO2 SL Apr 18, 2024 · METAR KCMH 182351Z 15006KT 10SM FEW150 BKN250 21/08 A2999 RMK AO2 SLP152 T02110083 10228 20200 58011. The wind is from direction 150° with a speed of 6 kt. Visibility is 10 mi. The ceiling, broken or more, is 25,000 ft. The temperature and wind chill are 21 °C. METAR: KCMH 231251Z 19010G19KT 10SM SCT100 BKN200 12/01 A3004 RMK AO2 SLP173 T01220011 TAF: KCMH 231120Z 2312/2412 19012KT P6SM SCT250 FM232000 22016G24KT P6SM BKN250 FM240000 27015G24KT 5SM -SHRA OVC035 FM240300 24012G20KT P6SM VCSH BKN027 FM240600 26009KT P6SM BKN027 FM240900 26009KT P6SM BKN015 Reporting Station: KCMH (0.8 NM at True Heading of 118) Visibility: 10+SM Flight Category: VFR ... AWC - Aviation Weather Center provides current and hMETAR Daytona Beach International Airport - KTAF: EKCH 021703Z 0218/0318 08015KT CAVOK TEM METAR Washington Dulles International Airport - KIAD/IAD. Washington Dulles International Airport is a large airport in Virginia, United States. The airport is located at latitude 38.94774 and longitude -77.46089. The airport has 4 runways: 1C/19C, 1L/19R, 1R/19L and 12/30.METAR KCMH 171257Z 19013KT 5SM -RA BKN009 BKN040 OVC050 17/14 A2991 RMK AO2 LTG DSNT SW RAB55 P0000 T01720144. Current weather is light rain.The wind is from direction 190° with a speed of 13 kt. Visibility is 5 mi. The ceiling, broken or more, is 900 ft. The temperature and wind chill are 17 °C. METAR KCMH 180151Z 30008KT 10SM SCT075 18/11 A2989 RMK AO2 SLP METAR KTZR 241055Z AUTO 02005KT 10SM OVC060 11/06 A3019 RMK AO2 T01100057. The wind is from direction 020° with a speed of 5 kt. Visibility is 10 mi. The ceiling, broken or more, is 6,000 ft. ... (KCMH) KTZR. KCMH - John Glenn Columbus International Airport. KOSU - The Ohio State University Airport - Don Scott Field ...METAR KCMH 182251Z 16004KT 10SM FEW150 BKN250 22/09 A3000 RMK AO2 SLP157 T02170089. The wind is from direction 160° with a speed of 4 kt. Visibility is 10 mi. The ceiling, broken or more, is 25,000 ft. The temperature and wind chill are 22 °C. METAR KCMH 180051Z 32009KT 10SM FEW050 FEW250 18/[AWC - Aviation Weather CenterDeep underneath Antarctica, there lies a hidden lake. Roughly METAR KCMH 180051Z 32009KT 10SM FEW050 FEW250 18/12 A2984 RMK AO2 SLP100 T01830117 $. The wind is from direction 320° with a speed of 9 kt. Visibility is 10 mi. No ceiling has been observed. The temperature and wind chill are 18 °C.KCMH - Port Columbus International Airport, United States | METAR Reader. Port Columbus International Airport. United States. Weather Reports. METAR. KCMH …